Buffalo, Kentucky
Current Conditions -  °F | °C
As of 11:35 AM on Monday 24 Nov 2014 (Local Time) from K6I2 Reporting Station
Overcast Overcast  
Wind Chill: 55°   Ceiling: 3500
Heat Index: 55°   Visibility: 10mi
Dew Point: 45°   Wind: 21mph
Humidity: 67%   Direction: 330°NNW
Pressure: 29.63"   Gusts: 33mph
Location:  37.51°N, 85.7°W
Report Text: K6I2 241635Z AUTO 33018G29KT 10SM FEW027 BKN035 OVC044 13/07 A2963 RMK AO2
Loading
Personal Weather Stations






























Interactive Weather Map New forecast layout! Learn more

10-Day Weather Forecast

Advertisements
Track Severe Weather on mobile